Ana Sayfa
METAR-TAF:

METAR-TAF

Havaalanları :

Gaithersburg, Maryland, Amerika Birleşik Devletleri

Enlem: 39-10-06N, Boylam: 077-09-58W, yükseklik: 164 m

Güncel hava durumu gözlemi

Rapor saat 19:56 UTC de 34 dakika önce yapıldı.
Rüzgar batıdan 5 kt
Sıcaklık 35°C
Nem 53%
Basınç 1012 hPa
Görüş mesafesi: 14.5 km
5500 ft yükseklikte az bulutlu

METAR: KGAI 211956Z AUTO 26005KT 9SM FEW055 35/24 A2988 RMK AO2 SLP125 T03500239 PNO $

Saat: 16:30 (20:30 UTC)


TAF: eksik

4.000'den fazla havaalanı için hava durumu gözlemleri ve tahminleri (METAR ve TAF raporları).

Kullanılabilir istasyonlar harita üzerinde sarı ve kırmızı noktalarla gösterilir.

İstasyonun adını görmek için fareyi noktanın üzerinde gezdirin.

Sonrasında hava gözlem ve tahminlerini görmek için tıklayın.

Haritayı değiştirmek için: yaklaştırmak için siyah artı işaretli yeşil düğmeye ve uzaklaştırmak için de eksi işaretli düğmeye hızla tıklayın; bitişik haritalar için yeşil okları kullanın.


METAR-TAF: